sensor_id;sensor_type;location;lat;lon;timestamp;temperature;humidity
6008;DHT22;3032;49.484;11.112;2023-04-03T00:01:04;6.90;99.90
6008;DHT22;3032;49.484;11.112;2023-04-03T00:03:30;6.90;99.90
6008;DHT22;3032;49.484;11.112;2023-04-03T00:05:56;7.00;99.90
6008;DHT22;3032;49.484;11.112;2023-04-03T00:08:21;6.90;99.90
6008;DHT22;3032;49.484;11.112;2023-04-03T00:10:48;6.80;99.90
6008;DHT22;3032;49.484;11.112;2023-04-03T00:13:14;6.90;99.90
6008;DHT22;3032;49.484;11.112;2023-04-03T00:15:41;6.90;99.90
6008;DHT22;3032;49.484;11.112;2023-04-03T00:18:06;6.90;99.90
6008;DHT22;3032;49.484;11.112;2023-04-03T00:20:33;6.80;99.90
6008;DHT22;3032;49.484;11.112;2023-04-03T00:22:59;6.90;99.90
6008;DHT22;3032;49.484;11.112;2023-04-03T00:25:25;6.90;99.90
6008;DHT22;3032;49.484;11.112;2023-04-03T00:27:51;6.80;99.90
6008;DHT22;3032;49.484;11.112;2023-04-03T00:30:19;6.80;99.90
6008;DHT22;3032;49.484;11.112;2023-04-03T00:32:47;6.80;99.90
6008;DHT22;3032;49.484;11.112;2023-04-03T00:35:12;6.80;99.90
6008;DHT22;3032;49.484;11.112;2023-04-03T00:37:41;6.80;99.90
6008;DHT22;3032;49.484;11.112;2023-04-03T00:40:08;6.80;99.90
6008;DHT22;3032;49.484;11.112;2023-04-03T00:42:33;6.40;99.90
6008;DHT22;3032;49.484;11.112;2023-04-03T00:47:27;6.60;99.90
6008;DHT22;3032;49.484;11.112;2023-04-03T00:49:53;6.60;99.90
6008;DHT22;3032;49.484;11.112;2023-04-03T00:52:22;6.70;99.90
6008;DHT22;3032;49.484;11.112;2023-04-03T00:54:50;6.60;99.90
6008;DHT22;3032;49.484;11.112;2023-04-03T00:57:17;6.70;99.90
6008;DHT22;3032;49.484;11.112;2023-04-03T00:59:45;6.60;99.90
6008;DHT22;3032;49.484;11.112;2023-04-03T01:02:11;6.60;99.90
6008;DHT22;3032;49.484;11.112;2023-04-03T01:04:40;6.60;99.90
6008;DHT22;3032;49.484;11.112;2023-04-03T01:09:37;6.60;99.90
6008;DHT22;3032;49.484;11.112;2023-04-03T01:12:21;6.60;99.90
6008;DHT22;3032;49.484;11.112;2023-04-03T01:14:56;6.60;99.90
6008;DHT22;3032;49.484;11.112;2023-04-03T01:25:25;6.40;99.90
6008;DHT22;3032;49.484;11.112;2023-04-03T01:27:51;6.40;99.90
6008;DHT22;3032;49.484;11.112;2023-04-03T01:30:18;6.30;99.90
6008;DHT22;3032;49.484;11.112;2023-04-03T01:32:45;6.30;99.90
6008;DHT22;3032;49.484;11.112;2023-04-03T01:35:11;6.30;99.90
6008;DHT22;3032;49.484;11.112;2023-04-03T01:37:36;6.30;99.90
6008;DHT22;3032;49.484;11.112;2023-04-03T01:40:03;6.20;99.90
6008;DHT22;3032;49.484;11.112;2023-04-03T01:42:28;6.10;99.90
6008;DHT22;3032;49.484;11.112;2023-04-03T01:44:55;6.10;99.90
6008;DHT22;3032;49.484;11.112;2023-04-03T01:47:21;6.00;99.90
6008;DHT22;3032;49.484;11.112;2023-04-03T01:49:47;5.90;99.90
6008;DHT22;3032;49.484;11.112;2023-04-03T01:52:12;5.80;99.90
6008;DHT22;3032;49.484;11.112;2023-04-03T01:54:38;5.80;99.90
6008;DHT22;3032;49.484;11.112;2023-04-03T01:57:04;5.70;99.90
6008;DHT22;3032;49.484;11.112;2023-04-03T01:59:29;5.60;99.90
6008;DHT22;3032;49.484;11.112;2023-04-03T02:01:55;5.60;99.90
6008;DHT22;3032;49.484;11.112;2023-04-03T02:04:21;5.50;99.90
6008;DHT22;3032;49.484;11.112;2023-04-03T02:06:46;5.40;99.90
6008;DHT22;3032;49.484;11.112;2023-04-03T02:09:12;5.30;99.90
6008;DHT22;3032;49.484;11.112;2023-04-03T02:11:38;5.20;99.90
6008;DHT22;3032;49.484;11.112;2023-04-03T02:14:03;5.20;99.90
6008;DHT22;3032;49.484;11.112;2023-04-03T02:16:29;5.20;99.90
6008;DHT22;3032;49.484;11.112;2023-04-03T02:18:55;5.20;99.90
6008;DHT22;3032;49.484;11.112;2023-04-03T02:21:21;5.20;99.90
6008;DHT22;3032;49.484;11.112;2023-04-03T02:23:47;5.00;99.90
6008;DHT22;3032;49.484;11.112;2023-04-03T02:26:14;4.80;99.90
6008;DHT22;3032;49.484;11.112;2023-04-03T02:28:40;4.80;99.90
6008;DHT22;3032;49.484;11.112;2023-04-03T02:31:09;4.80;99.90
6008;DHT22;3032;49.484;11.112;2023-04-03T02:33:36;4.80;99.90
6008;DHT22;3032;49.484;11.112;2023-04-03T02:36:03;4.90;99.90
6008;DHT22;3032;49.484;11.112;2023-04-03T02:38:29;4.90;99.90
6008;DHT22;3032;49.484;11.112;2023-04-03T02:41:00;4.80;99.90
6008;DHT22;3032;49.484;11.112;2023-04-03T02:43:26;4.50;99.90
6008;DHT22;3032;49.484;11.112;2023-04-03T02:45:51;4.50;99.90
6008;DHT22;3032;49.484;11.112;2023-04-03T02:48:17;4.50;99.90
6008;DHT22;3032;49.484;11.112;2023-04-03T02:50:42;4.50;99.90
6008;DHT22;3032;49.484;11.112;2023-04-03T02:53:08;4.50;99.90
6008;DHT22;3032;49.484;11.112;2023-04-03T02:55:33;4.50;99.90
6008;DHT22;3032;49.484;11.112;2023-04-03T02:57:59;4.40;99.90
6008;DHT22;3032;49.484;11.112;2023-04-03T03:00:25;4.30;99.90
6008;DHT22;3032;49.484;11.112;2023-04-03T03:02:50;4.30;99.90
6008;DHT22;3032;49.484;11.112;2023-04-03T03:05:16;4.30;99.90
6008;DHT22;3032;49.484;11.112;2023-04-03T03:07:42;4.30;99.90
6008;DHT22;3032;49.484;11.112;2023-04-03T03:10:08;4.30;99.90
6008;DHT22;3032;49.484;11.112;2023-04-03T03:12:33;4.30;99.90
6008;DHT22;3032;49.484;11.112;2023-04-03T03:14:59;4.20;99.90
6008;DHT22;3032;49.484;11.112;2023-04-03T03:17:25;4.10;99.90
6008;DHT22;3032;49.484;11.112;2023-04-03T03:19:50;3.90;99.90
6008;DHT22;3032;49.484;11.112;2023-04-03T03:22:16;4.00;99.90
6008;DHT22;3032;49.484;11.112;2023-04-03T03:24:42;3.70;99.90
6008;DHT22;3032;49.484;11.112;2023-04-03T03:27:07;3.80;99.90
6008;DHT22;3032;49.484;11.112;2023-04-03T03:29:33;4.00;99.90
6008;DHT22;3032;49.484;11.112;2023-04-03T03:31:58;4.20;99.90
6008;DHT22;3032;49.484;11.112;2023-04-03T03:34:24;4.30;99.90
6008;DHT22;3032;49.484;11.112;2023-04-03T03:36:50;4.20;99.90
6008;DHT22;3032;49.484;11.112;2023-04-03T03:39:15;4.00;99.90
6008;DHT22;3032;49.484;11.112;2023-04-03T03:41:41;4.10;99.90
6008;DHT22;3032;49.484;11.112;2023-04-03T03:44:06;4.30;99.90
6008;DHT22;3032;49.484;11.112;2023-04-03T03:46:32;4.40;99.90
6008;DHT22;3032;49.484;11.112;2023-04-03T03:48:58;4.30;99.90
6008;DHT22;3032;49.484;11.112;2023-04-03T03:51:23;4.50;99.90
6008;DHT22;3032;49.484;11.112;2023-04-03T03:53:49;4.50;99.90
6008;DHT22;3032;49.484;11.112;2023-04-03T03:56:14;4.30;99.90
6008;DHT22;3032;49.484;11.112;2023-04-03T03:58:40;4.40;99.90
6008;DHT22;3032;49.484;11.112;2023-04-03T04:01:06;4.50;99.90
6008;DHT22;3032;49.484;11.112;2023-04-03T04:03:32;4.40;99.90
6008;DHT22;3032;49.484;11.112;2023-04-03T04:05:58;4.40;99.90
6008;DHT22;3032;49.484;11.112;2023-04-03T04:08:23;4.20;99.90
6008;DHT22;3032;49.484;11.112;2023-04-03T04:10:49;4.10;99.90
6008;DHT22;3032;49.484;11.112;2023-04-03T04:13:15;4.00;99.90
6008;DHT22;3032;49.484;11.112;2023-04-03T04:15:40;4.20;99.90
6008;DHT22;3032;49.484;11.112;2023-04-03T04:18:06;4.20;99.90
6008;DHT22;3032;49.484;11.112;2023-04-03T04:20:31;4.20;99.90
6008;DHT22;3032;49.484;11.112;2023-04-03T04:22:57;4.00;99.90
6008;DHT22;3032;49.484;11.112;2023-04-03T04:25:22;4.00;99.90
6008;DHT22;3032;49.484;11.112;2023-04-03T04:27:48;4.00;99.90
6008;DHT22;3032;49.484;11.112;2023-04-03T04:30:13;3.90;99.90
6008;DHT22;3032;49.484;11.112;2023-04-03T04:32:39;3.90;99.90
6008;DHT22;3032;49.484;11.112;2023-04-03T04:35:05;3.80;99.90
6008;DHT22;3032;49.484;11.112;2023-04-03T04:37:31;3.80;99.90
6008;DHT22;3032;49.484;11.112;2023-04-03T04:39:56;3.90;99.90
6008;DHT22;3032;49.484;11.112;2023-04-03T04:42:22;3.80;99.90
6008;DHT22;3032;49.484;11.112;2023-04-03T04:44:47;3.90;99.90
6008;DHT22;3032;49.484;11.112;2023-04-03T04:47:13;3.90;99.90
6008;DHT22;3032;49.484;11.112;2023-04-03T04:49:38;3.70;99.90
6008;DHT22;3032;49.484;11.112;2023-04-03T04:52:04;3.20;99.90
6008;DHT22;3032;49.484;11.112;2023-04-03T04:54:30;2.90;99.90
6008;DHT22;3032;49.484;11.112;2023-04-03T04:56:56;2.60;99.90
6008;DHT22;3032;49.484;11.112;2023-04-03T04:59:21;2.70;99.90
6008;DHT22;3032;49.484;11.112;2023-04-03T05:01:47;2.90;99.90
6008;DHT22;3032;49.484;11.112;2023-04-03T05:04:12;2.90;99.90
6008;DHT22;3032;49.484;11.112;2023-04-03T05:06:39;2.80;99.90
6008;DHT22;3032;49.484;11.112;2023-04-03T05:09:05;2.70;99.90
6008;DHT22;3032;49.484;11.112;2023-04-03T05:11:30;2.80;99.90
6008;DHT22;3032;49.484;11.112;2023-04-03T05:13:56;3.00;99.90
6008;DHT22;3032;49.484;11.112;2023-04-03T05:16:22;2.90;99.90
6008;DHT22;3032;49.484;11.112;2023-04-03T05:18:47;2.70;99.90
6008;DHT22;3032;49.484;11.112;2023-04-03T05:21:13;2.80;99.90
6008;DHT22;3032;49.484;11.112;2023-04-03T05:23:39;2.90;99.90
6008;DHT22;3032;49.484;11.112;2023-04-03T05:26:04;3.10;99.90
6008;DHT22;3032;49.484;11.112;2023-04-03T05:28:31;2.90;99.90
6008;DHT22;3032;49.484;11.112;2023-04-03T05:30:57;3.10;99.90
6008;DHT22;3032;49.484;11.112;2023-04-03T05:33:24;3.00;99.90
6008;DHT22;3032;49.484;11.112;2023-04-03T05:35:50;3.30;99.90
6008;DHT22;3032;49.484;11.112;2023-04-03T05:38:15;3.30;99.90
6008;DHT22;3032;49.484;11.112;2023-04-03T05:40:41;3.60;99.90
6008;DHT22;3032;49.484;11.112;2023-04-03T05:43:07;3.30;99.90
6008;DHT22;3032;49.484;11.112;2023-04-03T05:45:32;3.40;99.90
6008;DHT22;3032;49.484;11.112;2023-04-03T05:47:58;3.60;99.90
6008;DHT22;3032;49.484;11.112;2023-04-03T05:50:24;3.70;99.90
6008;DHT22;3032;49.484;11.112;2023-04-03T05:52:50;4.00;99.90
6008;DHT22;3032;49.484;11.112;2023-04-03T05:55:18;4.40;99.90
6008;DHT22;3032;49.484;11.112;2023-04-03T05:57:43;4.30;99.90
6008;DHT22;3032;49.484;11.112;2023-04-03T06:00:15;4.40;99.90
6008;DHT22;3032;49.484;11.112;2023-04-03T06:02:41;4.40;99.90
6008;DHT22;3032;49.484;11.112;2023-04-03T06:05:07;3.90;99.90
6008;DHT22;3032;49.484;11.112;2023-04-03T06:07:34;4.10;99.90
6008;DHT22;3032;49.484;11.112;2023-04-03T06:10:00;4.30;99.90
6008;DHT22;3032;49.484;11.112;2023-04-03T06:12:26;4.20;99.90
6008;DHT22;3032;49.484;11.112;2023-04-03T06:14:54;4.10;99.90
6008;DHT22;3032;49.484;11.112;2023-04-03T06:17:19;4.00;99.90
6008;DHT22;3032;49.484;11.112;2023-04-03T06:19:46;4.20;99.90
6008;DHT22;3032;49.484;11.112;2023-04-03T06:22:12;4.30;99.90
6008;DHT22;3032;49.484;11.112;2023-04-03T06:24:38;4.60;99.90
6008;DHT22;3032;49.484;11.112;2023-04-03T06:27:04;4.40;99.90
6008;DHT22;3032;49.484;11.112;2023-04-03T06:29:30;4.50;99.90
6008;DHT22;3032;49.484;11.112;2023-04-03T06:31:56;4.60;99.90
6008;DHT22;3032;49.484;11.112;2023-04-03T06:34:21;4.50;99.90
6008;DHT22;3032;49.484;11.112;2023-04-03T06:36:47;4.50;99.90
6008;DHT22;3032;49.484;11.112;2023-04-03T06:39:16;4.40;99.90
6008;DHT22;3032;49.484;11.112;2023-04-03T06:41:42;4.50;99.90
6008;DHT22;3032;49.484;11.112;2023-04-03T06:45:34;4.70;99.90
6008;DHT22;3032;49.484;11.112;2023-04-03T06:48:01;4.60;99.90
6008;DHT22;3032;49.484;11.112;2023-04-03T06:50:27;4.60;99.90
6008;DHT22;3032;49.484;11.112;2023-04-03T06:52:52;4.60;99.90
6008;DHT22;3032;49.484;11.112;2023-04-03T06:55:18;4.70;99.90
6008;DHT22;3032;49.484;11.112;2023-04-03T06:57:43;4.80;99.90
6008;DHT22;3032;49.484;11.112;2023-04-03T07:00:11;5.20;99.90
6008;DHT22;3032;49.484;11.112;2023-04-03T07:02:37;5.60;99.90
6008;DHT22;3032;49.484;11.112;2023-04-03T07:05:03;5.70;99.90
6008;DHT22;3032;49.484;11.112;2023-04-03T07:07:28;5.70;99.90
6008;DHT22;3032;49.484;11.112;2023-04-03T07:09:54;5.90;99.90
6008;DHT22;3032;49.484;11.112;2023-04-03T07:12:20;5.90;99.90
6008;DHT22;3032;49.484;11.112;2023-04-03T07:14:45;5.70;99.90
6008;DHT22;3032;49.484;11.112;2023-04-03T07:17:11;5.60;99.90
6008;DHT22;3032;49.484;11.112;2023-04-03T07:19:37;5.40;99.90
6008;DHT22;3032;49.484;11.112;2023-04-03T07:22:02;5.20;99.90
6008;DHT22;3032;49.484;11.112;2023-04-03T07:24:28;5.20;99.90
6008;DHT22;3032;49.484;11.112;2023-04-03T07:26:54;5.50;99.90
6008;DHT22;3032;49.484;11.112;2023-04-03T07:29:19;5.30;99.90
6008;DHT22;3032;49.484;11.112;2023-04-03T07:31:46;5.30;99.90
6008;DHT22;3032;49.484;11.112;2023-04-03T07:34:12;5.40;99.90
6008;DHT22;3032;49.484;11.112;2023-04-03T07:36:37;5.50;99.90
6008;DHT22;3032;49.484;11.112;2023-04-03T07:39:03;5.90;99.90
6008;DHT22;3032;49.484;11.112;2023-04-03T07:41:29;5.70;99.90
6008;DHT22;3032;49.484;11.112;2023-04-03T07:43:55;5.60;99.90
6008;DHT22;3032;49.484;11.112;2023-04-03T07:46:22;5.90;99.90
6008;DHT22;3032;49.484;11.112;2023-04-03T07:48:47;6.30;99.90
6008;DHT22;3032;49.484;11.112;2023-04-03T07:51:13;6.70;99.90
6008;DHT22;3032;49.484;11.112;2023-04-03T07:53:39;6.50;99.90
6008;DHT22;3032;49.484;11.112;2023-04-03T07:56:04;6.20;99.90
6008;DHT22;3032;49.484;11.112;2023-04-03T07:58:30;6.50;99.90
6008;DHT22;3032;49.484;11.112;2023-04-03T08:00:56;6.70;99.90
6008;DHT22;3032;49.484;11.112;2023-04-03T08:03:22;6.80;99.90
6008;DHT22;3032;49.484;11.112;2023-04-03T08:05:48;7.10;99.90
6008;DHT22;3032;49.484;11.112;2023-04-03T08:08:19;7.30;99.90
6008;DHT22;3032;49.484;11.112;2023-04-03T08:10:49;7.20;99.90
6008;DHT22;3032;49.484;11.112;2023-04-03T08:13:15;7.50;99.90
6008;DHT22;3032;49.484;11.112;2023-04-03T08:15:40;7.60;99.90
6008;DHT22;3032;49.484;11.112;2023-04-03T08:18:06;7.90;99.90
6008;DHT22;3032;49.484;11.112;2023-04-03T08:20:32;8.00;99.90
6008;DHT22;3032;49.484;11.112;2023-04-03T08:22:57;8.20;99.90
6008;DHT22;3032;49.484;11.112;2023-04-03T08:25:23;8.30;99.90
6008;DHT22;3032;49.484;11.112;2023-04-03T08:27:48;8.40;99.90
6008;DHT22;3032;49.484;11.112;2023-04-03T08:30:14;8.60;99.90
6008;DHT22;3032;49.484;11.112;2023-04-03T08:32:40;8.40;99.90
6008;DHT22;3032;49.484;11.112;2023-04-03T08:35:08;8.90;99.90
6008;DHT22;3032;49.484;11.112;2023-04-03T08:37:38;9.10;98.80
6008;DHT22;3032;49.484;11.112;2023-04-03T08:40:06;9.00;98.70
6008;DHT22;3032;49.484;11.112;2023-04-03T08:42:40;9.00;97.30
6008;DHT22;3032;49.484;11.112;2023-04-03T08:45:38;9.20;96.70
6008;DHT22;3032;49.484;11.112;2023-04-03T08:48:21;8.90;95.80
6008;DHT22;3032;49.484;11.112;2023-04-03T08:50:56;9.00;94.70
6008;DHT22;3032;49.484;11.112;2023-04-03T08:53:25;9.30;94.90
6008;DHT22;3032;49.484;11.112;2023-04-03T08:55:54;9.80;93.40
6008;DHT22;3032;49.484;11.112;2023-04-03T08:58:26;11.20;91.70
6008;DHT22;3032;49.484;11.112;2023-04-03T09:01:05;11.10;90.70
6008;DHT22;3032;49.484;11.112;2023-04-03T09:03:36;9.90;91.70
6008;DHT22;3032;49.484;11.112;2023-04-03T09:11:21;8.20;94.20
6008;DHT22;3032;49.484;11.112;2023-04-03T09:16:53;9.50;93.60
6008;DHT22;3032;49.484;11.112;2023-04-03T09:22:01;9.00;92.90
6008;DHT22;3032;49.484;11.112;2023-04-03T09:24:28;9.00;92.80
6008;DHT22;3032;49.484;11.112;2023-04-03T09:27:01;9.60;91.90
6008;DHT22;3032;49.484;11.112;2023-04-03T09:29:28;9.20;91.60
6008;DHT22;3032;49.484;11.112;2023-04-03T09:32:01;9.50;91.70
6008;DHT22;3032;49.484;11.112;2023-04-03T09:34:35;9.50;91.70
6008;DHT22;3032;49.484;11.112;2023-04-03T09:37:03;9.30;90.80
6008;DHT22;3032;49.484;11.112;2023-04-03T09:39:49;9.20;90.30
6008;DHT22;3032;49.484;11.112;2023-04-03T09:42:22;10.20;90.90
6008;DHT22;3032;49.484;11.112;2023-04-03T09:44:57;10.90;86.10
6008;DHT22;3032;49.484;11.112;2023-04-03T09:49:51;11.10;85.80
6008;DHT22;3032;49.484;11.112;2023-04-03T09:52:34;10.90;83.00
6008;DHT22;3032;49.484;11.112;2023-04-03T09:55:16;10.90;80.00
6008;DHT22;3032;49.484;11.112;2023-04-03T09:57:42;10.30;80.60
6008;DHT22;3032;49.484;11.112;2023-04-03T10:00:26;10.70;80.50
6008;DHT22;3032;49.484;11.112;2023-04-03T10:02:55;11.10;82.00
6008;DHT22;3032;49.484;11.112;2023-04-03T10:05:40;11.80;79.50
6008;DHT22;3032;49.484;11.112;2023-04-03T10:10:45;10.40;76.60
6008;DHT22;3032;49.484;11.112;2023-04-03T10:18:34;10.10;76.80
6008;DHT22;3032;49.484;11.112;2023-04-03T10:21:56;10.30;78.80
6008;DHT22;3032;49.484;11.112;2023-04-03T10:27:11;10.20;77.90
6008;DHT22;3032;49.484;11.112;2023-04-03T10:38:20;10.50;72.40
6008;DHT22;3032;49.484;11.112;2023-04-03T10:41:07;9.80;74.00
6008;DHT22;3032;49.484;11.112;2023-04-03T10:43:44;8.70;78.40
6008;DHT22;3032;49.484;11.112;2023-04-03T10:49:00;9.40;79.00
6008;DHT22;3032;49.484;11.112;2023-04-03T10:51:45;10.10;76.60
6008;DHT22;3032;49.484;11.112;2023-04-03T10:54:11;9.90;75.80
6008;DHT22;3032;49.484;11.112;2023-04-03T10:56:52;10.20;75.40
6008;DHT22;3032;49.484;11.112;2023-04-03T10:59:44;10.40;75.70
6008;DHT22;3032;49.484;11.112;2023-04-03T11:02:30;10.80;74.20
6008;DHT22;3032;49.484;11.112;2023-04-03T11:05:07;11.50;70.90
6008;DHT22;3032;49.484;11.112;2023-04-03T11:07:48;12.40;67.20
6008;DHT22;3032;49.484;11.112;2023-04-03T11:10:59;13.40;66.10
6008;DHT22;3032;49.484;11.112;2023-04-03T11:13:12;14.00;62.20
6008;DHT22;3032;49.484;11.112;2023-04-03T11:15:39;13.90;61.20
6008;DHT22;3032;49.484;11.112;2023-04-03T11:18:19;12.40;59.10
6008;DHT22;3032;49.484;11.112;2023-04-03T11:21:31;12.70;63.80
6008;DHT22;3032;49.484;11.112;2023-04-03T11:23:51;13.60;59.60
6008;DHT22;3032;49.484;11.112;2023-04-03T11:26:19;13.40;59.00
6008;DHT22;3032;49.484;11.112;2023-04-03T11:28:46;13.10;60.80
6008;DHT22;3032;49.484;11.112;2023-04-03T11:31:47;13.40;59.90
6008;DHT22;3032;49.484;11.112;2023-04-03T11:34:26;14.20;58.10
6008;DHT22;3032;49.484;11.112;2023-04-03T11:36:58;14.30;56.50
6008;DHT22;3032;49.484;11.112;2023-04-03T11:39:31;15.20;57.90
6008;DHT22;3032;49.484;11.112;2023-04-03T11:44:49;16.60;54.00
6008;DHT22;3032;49.484;11.112;2023-04-03T12:19:03;12.30;59.10
6008;DHT22;3032;49.484;11.112;2023-04-03T12:37:37;11.60;58.40
6008;DHT22;3032;49.484;11.112;2023-04-03T12:45:25;12.80;58.80
6008;DHT22;3032;49.484;11.112;2023-04-03T12:47:53;13.60;57.30
6008;DHT22;3032;49.484;11.112;2023-04-03T12:50:23;14.30;55.50
6008;DHT22;3032;49.484;11.112;2023-04-03T12:53:03;15.00;53.80
6008;DHT22;3032;49.484;11.112;2023-04-03T12:55:29;14.30;54.70
6008;DHT22;3032;49.484;11.112;2023-04-03T12:57:54;13.60;53.40
6008;DHT22;3032;49.484;11.112;2023-04-03T13:00:22;13.20;57.80
6008;DHT22;3032;49.484;11.112;2023-04-03T13:02:48;12.50;58.20
6008;DHT22;3032;49.484;11.112;2023-04-03T13:05:17;12.60;58.00
6008;DHT22;3032;49.484;11.112;2023-04-03T13:07:44;12.60;57.20
6008;DHT22;3032;49.484;11.112;2023-04-03T13:10:16;12.10;58.50
6008;DHT22;3032;49.484;11.112;2023-04-03T13:12:51;12.50;59.10
6008;DHT22;3032;49.484;11.112;2023-04-03T13:17:48;12.10;55.80
6008;DHT22;3032;49.484;11.112;2023-04-03T13:20:27;12.00;56.80
6008;DHT22;3032;49.484;11.112;2023-04-03T13:23:00;13.20;57.40
6008;DHT22;3032;49.484;11.112;2023-04-03T13:25:30;14.70;55.70
6008;DHT22;3032;49.484;11.112;2023-04-03T13:27:57;14.60;53.10
6008;DHT22;3032;49.484;11.112;2023-04-03T13:30:29;13.90;53.30
6008;DHT22;3032;49.484;11.112;2023-04-03T13:32:57;13.60;54.80
6008;DHT22;3032;49.484;11.112;2023-04-03T13:35:36;13.70;55.10
6008;DHT22;3032;49.484;11.112;2023-04-03T13:41:05;13.30;57.10
6008;DHT22;3032;49.484;11.112;2023-04-03T13:43:46;13.20;55.50
6008;DHT22;3032;49.484;11.112;2023-04-03T13:48:41;14.40;56.40
6008;DHT22;3032;49.484;11.112;2023-04-03T13:53:51;15.80;53.40
6008;DHT22;3032;49.484;11.112;2023-04-03T13:59:20;15.70;52.80
6008;DHT22;3032;49.484;11.112;2023-04-03T14:04:33;14.70;51.70
6008;DHT22;3032;49.484;11.112;2023-04-03T14:07:10;14.50;52.50
6008;DHT22;3032;49.484;11.112;2023-04-03T14:09:36;15.00;53.00
6008;DHT22;3032;49.484;11.112;2023-04-03T14:12:15;15.60;52.40
6008;DHT22;3032;49.484;11.112;2023-04-03T14:14:41;15.60;52.90
6008;DHT22;3032;49.484;11.112;2023-04-03T14:17:16;15.60;51.30
6008;DHT22;3032;49.484;11.112;2023-04-03T14:19:43;15.50;52.00
6008;DHT22;3032;49.484;11.112;2023-04-03T14:22:22;14.90;52.30
6008;DHT22;3032;49.484;11.112;2023-04-03T14:24:49;15.10;51.80
6008;DHT22;3032;49.484;11.112;2023-04-03T14:27:22;15.70;53.00
6008;DHT22;3032;49.484;11.112;2023-04-03T14:29:51;15.30;49.90
6008;DHT22;3032;49.484;11.112;2023-04-03T14:32:18;14.80;53.30
6008;DHT22;3032;49.484;11.112;2023-04-03T14:34:44;14.30;52.00
6008;DHT22;3032;49.484;11.112;2023-04-03T14:37:12;13.80;52.20
6008;DHT22;3032;49.484;11.112;2023-04-03T14:39:38;13.40;53.10
6008;DHT22;3032;49.484;11.112;2023-04-03T14:42:04;13.40;54.40
6008;DHT22;3032;49.484;11.112;2023-04-03T14:44:29;13.00;55.80
6008;DHT22;3032;49.484;11.112;2023-04-03T14:46:55;12.50;54.40
6008;DHT22;3032;49.484;11.112;2023-04-03T14:49:24;11.90;54.10
6008;DHT22;3032;49.484;11.112;2023-04-03T14:51:50;11.80;53.50
6008;DHT22;3032;49.484;11.112;2023-04-03T14:54:19;11.50;54.60
6008;DHT22;3032;49.484;11.112;2023-04-03T14:56:47;12.20;54.40
6008;DHT22;3032;49.484;11.112;2023-04-03T14:59:13;12.50;54.20
6008;DHT22;3032;49.484;11.112;2023-04-03T15:01:40;12.10;53.80
6008;DHT22;3032;49.484;11.112;2023-04-03T15:04:12;11.50;55.00
6008;DHT22;3032;49.484;11.112;2023-04-03T15:06:38;11.00;55.00
6008;DHT22;3032;49.484;11.112;2023-04-03T15:09:03;10.20;56.70
6008;DHT22;3032;49.484;11.112;2023-04-03T15:11:29;10.00;56.10
6008;DHT22;3032;49.484;11.112;2023-04-03T15:13:54;9.60;57.30
6008;DHT22;3032;49.484;11.112;2023-04-03T15:16:28;9.40;57.80
6008;DHT22;3032;49.484;11.112;2023-04-03T15:18:54;9.60;58.40
6008;DHT22;3032;49.484;11.112;2023-04-03T15:21:19;9.60;58.40
6008;DHT22;3032;49.484;11.112;2023-04-03T15:23:45;9.80;58.30
6008;DHT22;3032;49.484;11.112;2023-04-03T15:26:10;10.00;58.80
6008;DHT22;3032;49.484;11.112;2023-04-03T15:28:39;10.50;58.00
6008;DHT22;3032;49.484;11.112;2023-04-03T15:31:06;10.70;57.40
6008;DHT22;3032;49.484;11.112;2023-04-03T15:33:35;10.40;56.60
6008;DHT22;3032;49.484;11.112;2023-04-03T15:36:01;10.00;56.70
6008;DHT22;3032;49.484;11.112;2023-04-03T15:38:27;9.90;57.80
6008;DHT22;3032;49.484;11.112;2023-04-03T15:40:53;9.60;59.60
6008;DHT22;3032;49.484;11.112;2023-04-03T15:43:19;9.20;60.80
6008;DHT22;3032;49.484;11.112;2023-04-03T15:45:45;8.80;58.50
6008;DHT22;3032;49.484;11.112;2023-04-03T15:48:11;8.30;60.10
6008;DHT22;3032;49.484;11.112;2023-04-03T15:50:38;8.20;60.90
6008;DHT22;3032;49.484;11.112;2023-04-03T15:53:03;8.00;60.60
6008;DHT22;3032;49.484;11.112;2023-04-03T15:55:32;8.10;60.70
6008;DHT22;3032;49.484;11.112;2023-04-03T15:57:58;8.00;60.80
6008;DHT22;3032;49.484;11.112;2023-04-03T16:00:24;8.20;60.30
6008;DHT22;3032;49.484;11.112;2023-04-03T16:02:53;8.10;61.80
6008;DHT22;3032;49.484;11.112;2023-04-03T16:05:20;8.10;61.00
6008;DHT22;3032;49.484;11.112;2023-04-03T16:07:46;8.40;61.50
6008;DHT22;3032;49.484;11.112;2023-04-03T16:10:14;8.30;60.70
6008;DHT22;3032;49.484;11.112;2023-04-03T16:12:40;8.60;60.80
6008;DHT22;3032;49.484;11.112;2023-04-03T16:15:06;9.00;63.00
6008;DHT22;3032;49.484;11.112;2023-04-03T16:17:34;9.00;60.30
6008;DHT22;3032;49.484;11.112;2023-04-03T16:20:00;9.40;60.40
6008;DHT22;3032;49.484;11.112;2023-04-03T16:22:27;9.30;59.40
6008;DHT22;3032;49.484;11.112;2023-04-03T16:24:53;9.00;59.30
6008;DHT22;3032;49.484;11.112;2023-04-03T16:27:19;8.90;59.70
6008;DHT22;3032;49.484;11.112;2023-04-03T16:29:45;8.80;59.50
6008;DHT22;3032;49.484;11.112;2023-04-03T16:32:12;8.60;62.70
6008;DHT22;3032;49.484;11.112;2023-04-03T16:34:38;8.60;60.80
6008;DHT22;3032;49.484;11.112;2023-04-03T16:37:05;8.40;61.70
6008;DHT22;3032;49.484;11.112;2023-04-03T16:39:34;8.30;61.80
6008;DHT22;3032;49.484;11.112;2023-04-03T16:42:00;8.30;62.10
6008;DHT22;3032;49.484;11.112;2023-04-03T16:44:25;8.10;61.40
6008;DHT22;3032;49.484;11.112;2023-04-03T16:46:51;7.40;62.60
6008;DHT22;3032;49.484;11.112;2023-04-03T16:49:17;7.20;63.40
6008;DHT22;3032;49.484;11.112;2023-04-03T16:51:42;7.30;63.70
6008;DHT22;3032;49.484;11.112;2023-04-03T16:54:08;7.30;63.60
6008;DHT22;3032;49.484;11.112;2023-04-03T16:56:36;7.10;64.10
6008;DHT22;3032;49.484;11.112;2023-04-03T16:59:02;7.20;64.20
6008;DHT22;3032;49.484;11.112;2023-04-03T17:01:27;7.20;64.90
6008;DHT22;3032;49.484;11.112;2023-04-03T17:03:53;6.90;64.70
6008;DHT22;3032;49.484;11.112;2023-04-03T17:06:20;6.80;65.00
6008;DHT22;3032;49.484;11.112;2023-04-03T17:08:48;6.80;64.80
6008;DHT22;3032;49.484;11.112;2023-04-03T17:11:14;6.60;64.60
6008;DHT22;3032;49.484;11.112;2023-04-03T17:13:39;6.50;65.30
6008;DHT22;3032;49.484;11.112;2023-04-03T17:16:08;6.30;65.80
6008;DHT22;3032;49.484;11.112;2023-04-03T17:18:35;6.20;65.60
6008;DHT22;3032;49.484;11.112;2023-04-03T17:21:02;6.10;66.60
6008;DHT22;3032;49.484;11.112;2023-04-03T17:23:28;6.00;66.90
6008;DHT22;3032;49.484;11.112;2023-04-03T17:25:54;5.80;66.90
6008;DHT22;3032;49.484;11.112;2023-04-03T17:28:21;5.80;67.50
6008;DHT22;3032;49.484;11.112;2023-04-03T17:30:53;6.00;67.60
6008;DHT22;3032;49.484;11.112;2023-04-03T17:33:18;5.90;67.90
6008;DHT22;3032;49.484;11.112;2023-04-03T17:35:44;5.80;68.00
6008;DHT22;3032;49.484;11.112;2023-04-03T17:38:09;5.60;67.50
6008;DHT22;3032;49.484;11.112;2023-04-03T17:40:35;5.70;68.80
6008;DHT22;3032;49.484;11.112;2023-04-03T17:43:01;5.70;67.50
6008;DHT22;3032;49.484;11.112;2023-04-03T17:45:26;5.60;68.10
6008;DHT22;3032;49.484;11.112;2023-04-03T17:47:52;5.50;68.40
6008;DHT22;3032;49.484;11.112;2023-04-03T17:50:18;5.60;68.90
6008;DHT22;3032;49.484;11.112;2023-04-03T17:52:44;5.80;68.50
6008;DHT22;3032;49.484;11.112;2023-04-03T17:55:10;5.60;68.10
6008;DHT22;3032;49.484;11.112;2023-04-03T17:57:37;5.50;68.10
6008;DHT22;3032;49.484;11.112;2023-04-03T18:00:03;5.40;68.70
6008;DHT22;3032;49.484;11.112;2023-04-03T18:02:30;5.20;68.40
6008;DHT22;3032;49.484;11.112;2023-04-03T18:04:56;4.90;70.70